createdAt,value
2017-09-25T00:02:03.381Z,21.27
2017-09-25T00:04:36.304Z,19.10
2017-09-25T00:07:05.670Z,20.08
2017-09-25T00:09:34.344Z,20.37
2017-09-25T00:12:03.312Z,19.75
2017-09-25T00:14:31.789Z,18.83
2017-09-25T00:17:01.281Z,19.02
2017-09-25T00:19:30.564Z,19.17
2017-09-25T00:21:59.878Z,20.52
2017-09-25T00:24:32.994Z,20.50
2017-09-25T00:27:05.120Z,19.40
2017-09-25T00:29:34.112Z,21.80
2017-09-25T00:32:04.847Z,20.62
2017-09-25T00:34:37.746Z,20.58
2017-09-25T00:37:07.133Z,20.50
2017-09-25T00:39:40.093Z,20.70
2017-09-25T00:42:14.856Z,19.40
2017-09-25T00:44:57.138Z,19.70
2017-09-25T00:47:37.005Z,19.23
2017-09-25T00:50:08.721Z,20.15
2017-09-25T00:53:01.942Z,21.30
2017-09-25T00:55:48.037Z,19.08
2017-09-25T00:58:19.504Z,20.83
2017-09-25T01:03:54.219Z,20.55
2017-09-25T01:06:34.358Z,19.77
2017-09-25T01:09:03.913Z,22.15
2017-09-25T01:14:09.658Z,20.25
2017-09-25T01:19:14.771Z,22.08
2017-09-25T01:21:43.076Z,22.62
2017-09-25T01:24:12.144Z,20.83
2017-09-25T01:26:41.143Z,23.00
2017-09-25T01:29:09.351Z,21.70
2017-09-25T01:31:37.603Z,21.80
2017-09-25T01:34:07.311Z,22.27
2017-09-25T01:36:36.720Z,21.35
2017-09-25T01:39:05.688Z,22.45
2017-09-25T01:41:33.961Z,21.77
2017-09-25T01:44:02.195Z,20.90
2017-09-25T01:46:30.420Z,24.00
2017-09-25T01:48:58.657Z,21.85
2017-09-25T01:51:26.902Z,21.23
2017-09-25T01:53:55.145Z,23.55
2017-09-25T01:56:23.377Z,21.30
2017-09-25T01:58:51.618Z,21.27
2017-09-25T02:01:19.854Z,20.95
2017-09-25T02:03:48.094Z,21.15
2017-09-25T02:06:17.128Z,22.13
2017-09-25T02:08:46.863Z,21.48
2017-09-25T02:11:15.972Z,20.20
2017-09-25T02:13:44.341Z,21.52
2017-09-25T02:16:13.333Z,22.05
2017-09-25T02:18:42.408Z,23.08
2017-09-25T02:21:10.696Z,21.37
2017-09-25T02:23:39.708Z,22.17
2017-09-25T02:26:07.957Z,21.00
2017-09-25T02:28:37.015Z,22.27
2017-09-25T02:31:05.244Z,21.95
2017-09-25T02:33:34.004Z,22.90
2017-09-25T02:36:02.207Z,23.17
2017-09-25T02:38:30.404Z,21.30
2017-09-25T02:40:59.521Z,20.95
2017-09-25T02:43:27.718Z,21.55
2017-09-25T02:45:56.072Z,22.10
2017-09-25T02:48:24.315Z,21.27
2017-09-25T02:50:52.521Z,21.77
2017-09-25T02:53:20.825Z,22.17
2017-09-25T02:55:50.204Z,21.52
2017-09-25T02:58:18.416Z,21.75
2017-09-25T03:00:47.411Z,20.60
2017-09-25T03:03:15.595Z,20.02
2017-09-25T03:05:43.848Z,20.35
2017-09-25T03:08:12.871Z,20.55
2017-09-25T03:10:41.209Z,21.73
2017-09-25T03:13:10.244Z,20.95
2017-09-25T03:15:38.485Z,18.10
2017-09-25T03:18:07.463Z,19.62
2017-09-25T03:20:36.564Z,19.90
2017-09-25T03:23:05.590Z,21.05
2017-09-25T03:25:33.871Z,21.33
2017-09-25T03:28:02.124Z,21.00
2017-09-25T03:30:30.425Z,21.55
2017-09-25T03:32:58.690Z,20.70
2017-09-25T03:35:26.895Z,21.98
2017-09-25T03:37:55.576Z,20.65
2017-09-25T03:40:23.826Z,20.50
2017-09-25T03:42:52.069Z,20.62
2017-09-25T03:45:21.110Z,21.08
2017-09-25T03:47:49.489Z,21.90
2017-09-25T03:50:18.225Z,22.60
2017-09-25T03:52:48.402Z,21.20
2017-09-25T03:55:16.713Z,24.92
2017-09-25T03:57:45.851Z,22.98
2017-09-25T04:00:14.188Z,24.12
2017-09-25T04:02:43.254Z,22.60
2017-09-25T04:05:12.622Z,21.70
2017-09-25T04:07:41.783Z,22.10
2017-09-25T04:10:12.057Z,21.58
2017-09-25T04:12:41.166Z,22.87
2017-09-25T04:17:44.107Z,21.62
2017-09-25T04:20:13.160Z,19.95
2017-09-25T04:22:41.445Z,21.87
2017-09-25T04:25:09.671Z,21.73
2017-09-25T04:27:37.958Z,20.27
2017-09-25T04:30:06.169Z,20.37
2017-09-25T04:32:34.400Z,20.73
2017-09-25T04:35:02.680Z,20.17
2017-09-25T04:37:30.932Z,21.87
2017-09-25T04:39:59.172Z,21.95
2017-09-25T04:42:28.315Z,22.35
2017-09-25T04:44:56.585Z,22.05
2017-09-25T04:47:25.240Z,19.40
2017-09-25T04:49:53.560Z,19.98
2017-09-25T04:52:22.817Z,20.42
2017-09-25T04:54:51.832Z,20.48
2017-09-25T04:57:20.072Z,22.92
2017-09-25T04:59:48.350Z,20.92
2017-09-25T05:02:17.361Z,21.37
2017-09-25T05:04:46.356Z,20.58
2017-09-25T05:07:15.349Z,21.35
2017-09-25T05:09:44.364Z,20.77
2017-09-25T05:12:12.642Z,20.92
2017-09-25T05:14:40.935Z,20.65
2017-09-25T05:17:09.216Z,21.02
2017-09-25T05:19:37.521Z,20.17
2017-09-25T05:22:05.748Z,20.08
2017-09-25T05:24:34.420Z,20.10
2017-09-25T05:27:03.490Z,19.40
2017-09-25T05:29:32.499Z,20.37
2017-09-25T05:32:01.299Z,20.05
2017-09-25T05:34:29.758Z,19.90
2017-09-25T05:36:58.776Z,19.27
2017-09-25T05:39:27.365Z,19.65
2017-09-25T05:41:55.611Z,19.45
2017-09-25T05:44:23.882Z,20.20
2017-09-25T05:46:53.888Z,19.85
2017-09-25T05:49:22.947Z,19.55
2017-09-25T05:51:51.176Z,20.10
2017-09-25T05:54:19.402Z,19.70
2017-09-25T05:56:48.095Z,19.87
2017-09-25T05:59:16.305Z,19.95
2017-09-25T06:01:45.294Z,21.85
2017-09-25T06:04:13.808Z,20.52
2017-09-25T06:06:42.406Z,21.77
2017-09-25T06:09:11.469Z,21.00
2017-09-25T06:11:40.411Z,22.80
2017-09-25T06:14:10.846Z,19.12
2017-09-25T06:16:39.199Z,19.83
2017-09-25T06:19:08.625Z,24.58
2017-09-25T06:24:12.055Z,20.48
2017-09-25T06:26:41.082Z,20.73
2017-09-25T06:29:12.491Z,19.92
2017-09-25T06:31:43.433Z,18.40
2017-09-25T06:34:11.755Z,21.02
2017-09-25T06:36:41.736Z,19.67
2017-09-25T06:39:09.987Z,19.60
2017-09-25T06:41:38.625Z,19.95
2017-09-25T06:44:06.838Z,18.95
2017-09-25T06:46:35.108Z,18.08
2017-09-25T06:49:03.302Z,19.02
2017-09-25T06:51:32.291Z,19.05
2017-09-25T06:54:01.272Z,19.98
2017-09-25T06:56:30.272Z,19.00
2017-09-25T06:58:59.242Z,20.40
2017-09-25T07:01:27.437Z,20.80
2017-09-25T07:03:57.311Z,18.50
2017-09-25T07:06:25.524Z,18.90
2017-09-25T07:08:54.509Z,17.75
2017-09-25T07:11:23.058Z,18.92
2017-09-25T07:13:51.349Z,19.33
2017-09-25T07:16:20.243Z,18.70
2017-09-25T07:18:48.553Z,17.90
2017-09-25T07:21:16.811Z,17.30
2017-09-25T07:23:45.528Z,17.00
2017-09-25T07:26:14.529Z,16.05
2017-09-25T07:28:45.941Z,16.25
2017-09-25T07:31:15.490Z,14.70
2017-09-25T07:33:45.059Z,17.73
2017-09-25T07:36:33.032Z,17.30
2017-09-25T07:39:30.397Z,17.00
2017-09-25T07:42:02.960Z,17.77
2017-09-25T07:48:21.729Z,15.52
2017-09-25T07:51:03.929Z,16.23
2017-09-25T07:53:36.933Z,16.77
2017-09-25T07:56:13.459Z,15.60
2017-09-25T07:58:44.527Z,15.98
2017-09-25T08:01:17.693Z,16.80
2017-09-25T08:03:57.270Z,15.23
2017-09-25T08:06:35.311Z,17.90
2017-09-25T08:14:56.348Z,17.70
2017-09-25T08:17:33.991Z,15.20
2017-09-25T08:20:15.621Z,15.40
2017-09-25T08:22:45.865Z,14.87
2017-09-25T08:25:22.670Z,16.23
2017-09-25T08:27:56.865Z,15.77
2017-09-25T08:33:30.374Z,17.20
2017-09-25T08:36:01.744Z,15.82
2017-09-25T08:38:32.065Z,15.90
2017-09-25T08:41:01.507Z,14.95
2017-09-25T08:43:30.248Z,15.38
2017-09-25T08:45:58.986Z,16.25
2017-09-25T08:48:27.617Z,15.60
2017-09-25T08:50:56.759Z,17.00
2017-09-25T08:53:25.325Z,15.60
2017-09-25T08:55:54.699Z,15.93
2017-09-25T08:58:23.055Z,14.25
2017-09-25T09:00:52.596Z,15.75
2017-09-25T09:03:20.928Z,15.48
2017-09-25T09:05:49.399Z,15.02
2017-09-25T09:08:35.473Z,16.40
2017-09-25T09:11:04.899Z,15.48
2017-09-25T09:13:33.899Z,16.00
2017-09-25T09:16:03.741Z,14.40
2017-09-25T09:18:32.608Z,14.23
2017-09-25T09:21:00.874Z,14.93
2017-09-25T09:23:29.868Z,16.05
2017-09-25T09:25:58.043Z,15.18
2017-09-25T09:28:26.665Z,14.18
2017-09-25T09:30:55.888Z,15.32
2017-09-25T09:33:25.452Z,13.95
2017-09-25T09:35:55.023Z,15.00
2017-09-25T09:38:25.379Z,16.10
2017-09-25T09:40:54.896Z,16.05
2017-09-25T09:43:23.953Z,16.75
2017-09-25T09:45:52.845Z,14.48
2017-09-25T09:48:21.294Z,14.45
2017-09-25T09:50:49.826Z,16.50
2017-09-25T09:53:18.023Z,16.12
2017-09-25T09:55:48.370Z,14.68
2017-09-25T09:58:17.643Z,16.30
2017-09-25T10:00:46.323Z,15.60
2017-09-25T10:03:15.897Z,16.05
2017-09-25T10:05:44.841Z,18.50
2017-09-25T10:08:14.063Z,19.60
2017-09-25T10:10:43.351Z,16.33
2017-09-25T10:13:11.759Z,15.35
2017-09-25T10:15:40.384Z,16.67
2017-09-25T10:18:09.802Z,15.75
2017-09-25T10:20:38.532Z,16.30
2017-09-25T10:23:07.029Z,15.80
2017-09-25T10:25:37.116Z,16.62
2017-09-25T10:28:05.942Z,17.10
2017-09-25T10:30:34.471Z,16.50
2017-09-25T10:33:03.583Z,16.50
2017-09-25T10:35:32.810Z,16.17
2017-09-25T10:38:02.438Z,17.62
2017-09-25T10:40:30.784Z,16.83
2017-09-25T10:43:00.063Z,15.00
2017-09-25T10:45:29.412Z,16.92
2017-09-25T10:47:58.454Z,16.17
2017-09-25T10:50:26.726Z,17.08
2017-09-25T10:52:55.029Z,17.08
2017-09-25T10:55:23.246Z,17.08
2017-09-25T10:57:51.495Z,18.35
2017-09-25T11:00:20.454Z,17.42
2017-09-25T11:02:49.126Z,18.77
2017-09-25T11:05:17.350Z,18.42
2017-09-25T11:07:46.321Z,24.75
2017-09-25T11:10:14.538Z,17.15
2017-09-25T11:12:42.769Z,15.73
2017-09-25T11:15:11.006Z,15.77
2017-09-25T11:17:39.220Z,16.20
2017-09-25T11:20:08.237Z,16.08
2017-09-25T11:22:36.466Z,16.48
2017-09-25T11:25:04.702Z,15.75
2017-09-25T11:27:32.904Z,15.65
2017-09-25T11:30:01.108Z,16.42
2017-09-25T11:32:30.079Z,14.95
2017-09-25T11:34:58.266Z,15.63
2017-09-25T11:37:26.496Z,16.33
2017-09-25T11:39:54.740Z,15.60
2017-09-25T11:42:23.722Z,15.52
2017-09-25T11:44:52.681Z,17.30
2017-09-25T11:47:21.137Z,14.13
2017-09-25T11:49:49.384Z,16.33
2017-09-25T11:52:17.596Z,15.40
2017-09-25T11:54:45.817Z,15.80
2017-09-25T11:59:49.455Z,15.35
2017-09-25T12:02:17.671Z,14.95
2017-09-25T12:04:45.897Z,15.35
2017-09-25T12:07:14.111Z,15.07
2017-09-25T12:09:42.294Z,20.92
2017-09-25T12:12:10.499Z,15.15
2017-09-25T12:14:39.479Z,15.57
2017-09-25T12:17:07.671Z,15.15
2017-09-25T12:19:36.640Z,14.00
2017-09-25T12:22:04.833Z,15.25
2017-09-25T12:24:33.818Z,13.77
2017-09-25T12:27:03.584Z,14.98
2017-09-25T12:29:31.780Z,16.00
2017-09-25T12:31:59.998Z,13.95
2017-09-25T12:34:28.220Z,15.35
2017-09-25T12:36:56.449Z,12.93
2017-09-25T12:39:24.692Z,14.45
2017-09-25T12:41:52.962Z,15.30
2017-09-25T12:44:21.180Z,15.48
2017-09-25T12:46:49.855Z,15.80
2017-09-25T12:49:18.078Z,13.60
2017-09-25T12:51:46.290Z,15.25
2017-09-25T12:54:15.260Z,13.65
2017-09-25T12:56:43.597Z,15.02
2017-09-25T12:59:12.792Z,15.43
2017-09-25T13:01:41.036Z,13.88
2017-09-25T13:04:09.270Z,13.90
2017-09-25T13:06:37.585Z,14.30
2017-09-25T13:11:41.629Z,14.15
2017-09-25T13:14:11.260Z,14.40
2017-09-25T13:16:40.021Z,15.25
2017-09-25T13:19:10.633Z,14.75
2017-09-25T13:21:38.868Z,14.43
2017-09-25T13:24:07.733Z,13.80
2017-09-25T13:26:36.417Z,13.40
2017-09-25T13:29:06.109Z,14.00
2017-09-25T13:31:35.254Z,13.05
2017-09-25T13:34:04.878Z,12.50
2017-09-25T13:36:34.603Z,12.60
2017-09-25T13:39:03.603Z,12.93
2017-09-25T13:41:32.995Z,13.60
2017-09-25T13:44:02.076Z,14.68
2017-09-25T13:46:33.772Z,13.48
2017-09-25T13:49:04.390Z,14.18
2017-09-25T13:51:34.331Z,13.05
2017-09-25T13:54:02.929Z,13.57
2017-09-25T13:56:32.114Z,14.38
2017-09-25T14:04:10.558Z,12.68
2017-09-25T14:06:40.041Z,12.65
2017-09-25T14:09:10.772Z,13.13
2017-09-25T14:11:45.257Z,11.82
2017-09-25T14:14:13.810Z,11.77
2017-09-25T14:16:42.089Z,11.20
2017-09-25T14:19:11.129Z,12.82
2017-09-25T14:21:40.507Z,14.55
2017-09-25T14:24:08.765Z,11.90
2017-09-25T14:26:40.482Z,13.02
2017-09-25T14:29:09.209Z,12.48
2017-09-25T14:31:38.737Z,13.18
2017-09-25T14:34:08.160Z,11.55
2017-09-25T14:36:36.660Z,10.88
2017-09-25T14:39:05.625Z,12.00
2017-09-25T14:41:33.946Z,11.95
2017-09-25T14:44:02.715Z,12.15
2017-09-25T14:46:31.602Z,12.13
2017-09-25T14:49:00.565Z,11.32
2017-09-25T14:51:29.565Z,11.05
2017-09-25T14:53:58.183Z,12.75
2017-09-25T14:56:28.749Z,11.90
2017-09-25T14:58:57.338Z,12.18
2017-09-25T15:01:25.606Z,12.02
2017-09-25T15:03:55.469Z,11.95
2017-09-25T15:06:25.051Z,12.25
2017-09-25T15:08:53.510Z,12.57
2017-09-25T15:11:21.889Z,11.70
2017-09-25T15:13:51.742Z,10.82
2017-09-25T15:16:21.296Z,11.90
2017-09-25T15:18:51.072Z,11.35
2017-09-25T15:21:20.609Z,13.52
2017-09-25T15:23:55.461Z,12.57
2017-09-25T15:26:26.754Z,10.38
2017-09-25T15:29:03.008Z,11.15
2017-09-25T15:31:31.526Z,11.90
2017-09-25T15:34:02.219Z,11.60
2017-09-25T15:36:32.926Z,11.63
2017-09-25T15:39:01.568Z,11.85
2017-09-25T15:41:30.419Z,12.05
2017-09-25T15:44:00.189Z,12.57
2017-09-25T15:46:29.813Z,12.10
2017-09-25T15:48:58.350Z,12.37
2017-09-25T15:51:26.912Z,12.40
2017-09-25T15:53:57.381Z,11.65
2017-09-25T15:56:28.057Z,11.40
2017-09-25T15:58:58.744Z,11.40
2017-09-25T16:01:27.713Z,11.88
2017-09-25T16:03:59.236Z,11.60
2017-09-25T16:06:28.337Z,10.68
2017-09-25T16:08:56.938Z,11.10
2017-09-25T16:11:27.356Z,11.48
2017-09-25T16:13:55.823Z,10.60
2017-09-25T16:16:26.439Z,11.32
2017-09-25T16:18:55.598Z,11.48
2017-09-25T16:21:24.073Z,10.65
2017-09-25T16:23:53.265Z,11.60
2017-09-25T16:26:21.549Z,10.20
2017-09-25T16:28:53.810Z,10.38
2017-09-25T16:31:22.094Z,10.35
2017-09-25T16:33:50.383Z,11.20
2017-09-25T16:36:18.681Z,10.18
2017-09-25T16:38:46.882Z,10.93
2017-09-25T16:41:15.148Z,10.10
2017-09-25T16:43:44.148Z,12.13
2017-09-25T16:46:12.460Z,10.35
2017-09-25T16:48:40.663Z,11.00
2017-09-25T16:51:08.909Z,10.77
2017-09-25T16:53:37.109Z,10.77
2017-09-25T16:56:05.320Z,10.65
2017-09-25T16:58:33.549Z,10.18
2017-09-25T17:01:02.203Z,9.88
2017-09-25T17:03:30.428Z,10.15
2017-09-25T17:05:59.432Z,11.98
2017-09-25T17:08:27.647Z,9.63
2017-09-25T17:10:55.861Z,9.85
2017-09-25T17:13:24.841Z,10.23
2017-09-25T17:15:53.095Z,11.68
2017-09-25T17:18:21.323Z,10.13
2017-09-25T17:20:50.335Z,10.00
2017-09-25T17:23:18.568Z,9.40
2017-09-25T17:25:46.892Z,9.43
2017-09-25T17:28:15.173Z,9.50
2017-09-25T17:30:43.402Z,10.23
2017-09-25T17:33:11.694Z,9.40
2017-09-25T17:35:39.978Z,9.85
2017-09-25T17:38:08.360Z,9.73
2017-09-25T17:40:36.589Z,10.25
2017-09-25T17:43:05.025Z,9.05
2017-09-25T17:45:33.440Z,9.15
2017-09-25T17:48:02.998Z,9.48
2017-09-25T17:50:32.108Z,9.95
2017-09-25T17:53:00.400Z,9.65
2017-09-25T17:55:29.561Z,10.77
2017-09-25T17:57:57.880Z,10.82
2017-09-25T18:00:26.984Z,10.05
2017-09-25T18:03:01.229Z,10.80
2017-09-25T18:05:34.508Z,11.00
2017-09-25T18:08:06.186Z,10.63
2017-09-25T18:10:44.447Z,10.07
2017-09-25T18:13:15.204Z,10.40
2017-09-25T18:15:46.598Z,10.30
2017-09-25T18:18:17.474Z,11.73
2017-09-25T18:20:48.003Z,10.43
2017-09-25T18:23:18.039Z,12.30
2017-09-25T18:26:00.997Z,11.38
2017-09-25T18:28:30.678Z,10.65
2017-09-25T19:01:25.443Z,11.57
2017-09-25T19:03:57.649Z,12.98
2017-09-25T19:06:26.568Z,12.60
2017-09-25T19:08:59.865Z,12.73
2017-09-25T19:11:31.644Z,12.25
2017-09-25T19:27:40.172Z,11.25
2017-09-25T19:30:11.796Z,12.20
2017-09-25T19:32:40.160Z,12.10
2017-09-25T19:35:08.459Z,12.93
2017-09-25T19:37:37.598Z,12.95
2017-09-25T19:40:06.616Z,13.80
2017-09-25T19:42:35.123Z,12.45
2017-09-25T19:45:03.449Z,13.57
2017-09-25T19:47:31.783Z,12.55
2017-09-25T19:50:02.619Z,12.77
2017-09-25T19:52:31.676Z,12.88
2017-09-25T19:55:05.405Z,12.00
2017-09-25T19:57:34.572Z,13.30
2017-09-25T20:00:02.852Z,12.45
2017-09-25T20:02:32.769Z,11.88
2017-09-25T20:05:01.145Z,13.30
2017-09-25T20:07:29.442Z,11.43
2017-09-25T20:09:57.666Z,12.37
2017-09-25T20:12:26.007Z,13.15
2017-09-25T20:14:58.349Z,12.15
2017-09-25T20:17:30.143Z,13.00
2017-09-25T20:19:58.489Z,11.65
2017-09-25T20:22:26.892Z,12.52
2017-09-25T20:24:55.943Z,12.98
2017-09-25T20:27:24.791Z,12.48
2017-09-25T20:29:53.108Z,12.65
2017-09-25T20:32:21.428Z,12.45
2017-09-25T20:34:50.440Z,11.20
2017-09-25T20:37:18.772Z,13.02
2017-09-25T20:39:47.106Z,12.93
2017-09-25T20:42:20.544Z,13.00
2017-09-25T20:44:48.765Z,13.57
2017-09-25T20:47:16.965Z,12.15
2017-09-25T20:49:45.230Z,13.57
2017-09-25T20:52:13.623Z,12.75
2017-09-25T20:54:41.978Z,11.95
2017-09-25T20:57:14.994Z,12.57
2017-09-25T20:59:43.301Z,12.05
2017-09-25T21:02:11.534Z,13.43
2017-09-25T21:04:39.782Z,11.93
2017-09-25T21:07:08.149Z,12.88
2017-09-25T21:09:36.400Z,12.40
2017-09-25T21:12:04.613Z,12.32
2017-09-25T21:14:32.859Z,11.65
2017-09-25T21:17:01.841Z,12.63
2017-09-25T21:19:30.143Z,13.20
2017-09-25T21:24:37.263Z,12.40
2017-09-25T21:27:05.788Z,13.43
2017-09-25T21:29:34.095Z,12.00
2017-09-25T21:32:02.299Z,12.25
2017-09-25T21:34:31.664Z,11.73
2017-09-25T21:37:00.861Z,12.35
2017-09-25T21:39:30.265Z,12.60
2017-09-25T21:41:59.828Z,11.85
2017-09-25T21:44:32.390Z,12.02
2017-09-25T22:05:04.483Z,10.43
2017-09-25T22:17:10.586Z,10.50
2017-09-25T22:19:57.058Z,10.13
2017-09-25T22:23:00.873Z,10.77
2017-09-25T22:25:48.940Z,10.52
2017-09-25T22:34:46.256Z,10.27
2017-09-25T22:49:11.907Z,10.75
2017-09-25T22:51:47.022Z,10.32
2017-09-25T22:54:20.118Z,10.35
2017-09-25T22:56:52.982Z,9.68
2017-09-25T22:59:25.530Z,10.55
2017-09-25T23:02:05.960Z,9.85
2017-09-25T23:04:44.015Z,9.93
2017-09-25T23:07:12.429Z,10.88
2017-09-25T23:09:48.246Z,8.85
2017-09-25T23:12:20.254Z,10.20
2017-09-25T23:14:50.523Z,10.80
2017-09-25T23:17:19.305Z,9.38
2017-09-25T23:19:48.733Z,8.93
2017-09-25T23:22:22.540Z,10.18
2017-09-25T23:24:52.716Z,9.32
2017-09-25T23:27:23.595Z,9.85
2017-09-25T23:32:57.601Z,10.30
2017-09-25T23:35:26.375Z,9.50
2017-09-25T23:37:57.362Z,10.32
2017-09-25T23:40:27.640Z,9.20
2017-09-25T23:46:17.694Z,10.00
2017-09-25T23:51:20.665Z,9.82
2017-09-25T23:53:52.291Z,9.60
2017-09-25T23:56:23.937Z,8.77
2017-09-25T23:58:54.812Z,10.32
